sensor_id;sensor_type;location;lat;lon;timestamp;temperature;humidity
62809;DHT22;48848;39.002;-94.584;2022-10-15T00:01:08;19.80;40.00
62809;DHT22;48848;39.002;-94.584;2022-10-15T00:03:39;19.80;40.70
62809;DHT22;48848;39.002;-94.584;2022-10-15T00:06:18;19.80;40.70
62809;DHT22;48848;39.002;-94.584;2022-10-15T00:08:45;19.80;39.70
62809;DHT22;48848;39.002;-94.584;2022-10-15T00:11:13;19.80;40.30
62809;DHT22;48848;39.002;-94.584;2022-10-15T00:13:40;19.80;40.30
62809;DHT22;48848;39.002;-94.584;2022-10-15T00:16:12;19.80;40.00
62809;DHT22;48848;39.002;-94.584;2022-10-15T00:18:39;19.80;40.20
62809;DHT22;48848;39.002;-94.584;2022-10-15T00:21:07;19.80;40.60
62809;DHT22;48848;39.002;-94.584;2022-10-15T00:23:34;19.80;40.30
62809;DHT22;48848;39.002;-94.584;2022-10-15T00:26:23;19.80;40.90
62809;DHT22;48848;39.002;-94.584;2022-10-15T00:28:49;19.80;41.10
62809;DHT22;48848;39.002;-94.584;2022-10-15T00:31:18;19.80;40.80
62809;DHT22;48848;39.002;-94.584;2022-10-15T00:33:47;19.80;40.40
62809;DHT22;48848;39.002;-94.584;2022-10-15T00:36:16;19.80;40.60
62809;DHT22;48848;39.002;-94.584;2022-10-15T00:38:43;19.80;40.00
62809;DHT22;48848;39.002;-94.584;2022-10-15T00:41:15;19.80;40.60
62809;DHT22;48848;39.002;-94.584;2022-10-15T00:43:53;19.80;39.90
62809;DHT22;48848;39.002;-94.584;2022-10-15T00:49:32;19.80;39.90
62809;DHT22;48848;39.002;-94.584;2022-10-15T00:52:03;19.80;40.60
62809;DHT22;48848;39.002;-94.584;2022-10-15T00:54:35;19.80;40.60
62809;DHT22;48848;39.002;-94.584;2022-10-15T00:57:03;19.80;40.60
62809;DHT22;48848;39.002;-94.584;2022-10-15T00:59:31;19.80;40.90
62809;DHT22;48848;39.002;-94.584;2022-10-15T01:02:00;19.80;40.90
62809;DHT22;48848;39.002;-94.584;2022-10-15T01:04:27;19.90;41.30
62809;DHT22;48848;39.002;-94.584;2022-10-15T01:06:54;19.80;41.10
62809;DHT22;48848;39.002;-94.584;2022-10-15T01:09:20;19.80;41.20
62809;DHT22;48848;39.002;-94.584;2022-10-15T01:11:47;19.80;41.60
62809;DHT22;48848;39.002;-94.584;2022-10-15T01:14:57;19.80;41.00
62809;DHT22;48848;39.002;-94.584;2022-10-15T01:20:19;19.80;40.40
62809;DHT22;48848;39.002;-94.584;2022-10-15T01:23:09;19.80;40.80
62809;DHT22;48848;39.002;-94.584;2022-10-15T01:31:36;19.80;41.50
62809;DHT22;48848;39.002;-94.584;2022-10-15T01:39:41;19.80;41.30
62809;DHT22;48848;39.002;-94.584;2022-10-15T01:45:19;19.80;41.50
62809;DHT22;48848;39.002;-94.584;2022-10-15T01:47:52;19.90;41.20
62809;DHT22;48848;39.002;-94.584;2022-10-15T01:50:22;19.80;41.70
62809;DHT22;48848;39.002;-94.584;2022-10-15T01:52:49;19.80;41.60
62809;DHT22;48848;39.002;-94.584;2022-10-15T01:55:18;19.80;41.70
62809;DHT22;48848;39.002;-94.584;2022-10-15T01:57:46;19.90;41.90
62809;DHT22;48848;39.002;-94.584;2022-10-15T02:00:14;19.90;42.00
62809;DHT22;48848;39.002;-94.584;2022-10-15T02:02:40;19.80;42.00
62809;DHT22;48848;39.002;-94.584;2022-10-15T02:05:16;19.80;42.10
62809;DHT22;48848;39.002;-94.584;2022-10-15T02:08:05;19.80;41.60
62809;DHT22;48848;39.002;-94.584;2022-10-15T02:24:39;19.80;42.30
62809;DHT22;48848;39.002;-94.584;2022-10-15T02:27:07;19.80;42.40
62809;DHT22;48848;39.002;-94.584;2022-10-15T02:29:35;19.80;42.40
62809;DHT22;48848;39.002;-94.584;2022-10-15T02:32:04;19.80;42.50
62809;DHT22;48848;39.002;-94.584;2022-10-15T02:34:32;19.80;42.60
62809;DHT22;48848;39.002;-94.584;2022-10-15T02:37:04;19.80;42.40
62809;DHT22;48848;39.002;-94.584;2022-10-15T02:39:30;19.80;42.40
62809;DHT22;48848;39.002;-94.584;2022-10-15T02:41:57;19.80;42.30
62809;DHT22;48848;39.002;-94.584;2022-10-15T02:44:23;19.80;42.50
62809;DHT22;48848;39.002;-94.584;2022-10-15T02:46:51;19.80;42.60
62809;DHT22;48848;39.002;-94.584;2022-10-15T02:49:17;19.80;42.50
62809;DHT22;48848;39.002;-94.584;2022-10-15T02:51:43;19.80;42.40
62809;DHT22;48848;39.002;-94.584;2022-10-15T02:54:10;19.80;42.60
62809;DHT22;48848;39.002;-94.584;2022-10-15T02:56:36;19.80;42.60
62809;DHT22;48848;39.002;-94.584;2022-10-15T02:59:04;19.80;42.70
62809;DHT22;48848;39.002;-94.584;2022-10-15T03:01:31;19.80;42.80
62809;DHT22;48848;39.002;-94.584;2022-10-15T03:03:57;19.70;42.80
62809;DHT22;48848;39.002;-94.584;2022-10-15T03:06:24;19.70;42.80
62809;DHT22;48848;39.002;-94.584;2022-10-15T03:08:50;19.70;42.80
62809;DHT22;48848;39.002;-94.584;2022-10-15T03:11:16;19.70;42.90
62809;DHT22;48848;39.002;-94.584;2022-10-15T03:13:42;19.70;42.90
62809;DHT22;48848;39.002;-94.584;2022-10-15T03:16:10;19.70;42.80
62809;DHT22;48848;39.002;-94.584;2022-10-15T03:18:36;19.70;42.70
62809;DHT22;48848;39.002;-94.584;2022-10-15T03:21:03;19.70;43.70
62809;DHT22;48848;39.002;-94.584;2022-10-15T03:23:29;19.70;42.40
62809;DHT22;48848;39.002;-94.584;2022-10-15T03:25:55;19.70;42.60
62809;DHT22;48848;39.002;-94.584;2022-10-15T03:28:21;19.70;42.30
62809;DHT22;48848;39.002;-94.584;2022-10-15T03:30:48;19.70;42.30
62809;DHT22;48848;39.002;-94.584;2022-10-15T03:33:14;19.70;42.80
62809;DHT22;48848;39.002;-94.584;2022-10-15T03:35:40;19.70;42.80
62809;DHT22;48848;39.002;-94.584;2022-10-15T03:38:07;19.70;42.60
62809;DHT22;48848;39.002;-94.584;2022-10-15T03:40:34;19.70;42.40
62809;DHT22;48848;39.002;-94.584;2022-10-15T03:43:01;19.70;43.20
62809;DHT22;48848;39.002;-94.584;2022-10-15T03:45:27;19.60;43.30
62809;DHT22;48848;39.002;-94.584;2022-10-15T03:47:53;19.60;43.40
62809;DHT22;48848;39.002;-94.584;2022-10-15T03:50:19;19.60;43.00
62809;DHT22;48848;39.002;-94.584;2022-10-15T03:52:45;19.60;43.00
62809;DHT22;48848;39.002;-94.584;2022-10-15T03:55:12;19.60;43.30
62809;DHT22;48848;39.002;-94.584;2022-10-15T03:57:38;19.60;43.30
62809;DHT22;48848;39.002;-94.584;2022-10-15T04:00:06;19.50;44.60
62809;DHT22;48848;39.002;-94.584;2022-10-15T04:02:33;19.50;43.50
62809;DHT22;48848;39.002;-94.584;2022-10-15T04:04:59;19.50;43.60
62809;DHT22;48848;39.002;-94.584;2022-10-15T04:07:26;19.50;43.50
62809;DHT22;48848;39.002;-94.584;2022-10-15T04:09:52;19.50;43.90
62809;DHT22;48848;39.002;-94.584;2022-10-15T04:12:18;19.40;43.50
62809;DHT22;48848;39.002;-94.584;2022-10-15T04:14:44;19.40;44.00
62809;DHT22;48848;39.002;-94.584;2022-10-15T04:17:11;19.40;44.10
62809;DHT22;48848;39.002;-94.584;2022-10-15T04:19:37;19.40;44.30
62809;DHT22;48848;39.002;-94.584;2022-10-15T04:22:03;19.40;44.20
62809;DHT22;48848;39.002;-94.584;2022-10-15T04:24:30;19.30;44.30
62809;DHT22;48848;39.002;-94.584;2022-10-15T04:26:56;19.30;43.70
62809;DHT22;48848;39.002;-94.584;2022-10-15T04:29:22;19.30;44.40
62809;DHT22;48848;39.002;-94.584;2022-10-15T04:31:48;19.30;44.30
62809;DHT22;48848;39.002;-94.584;2022-10-15T04:34:14;19.30;44.50
62809;DHT22;48848;39.002;-94.584;2022-10-15T04:36:40;19.20;44.30
62809;DHT22;48848;39.002;-94.584;2022-10-15T04:39:07;19.30;44.20
62809;DHT22;48848;39.002;-94.584;2022-10-15T04:41:33;19.20;44.50
62809;DHT22;48848;39.002;-94.584;2022-10-15T04:43:59;19.20;44.80
62809;DHT22;48848;39.002;-94.584;2022-10-15T04:46:25;19.20;44.40
62809;DHT22;48848;39.002;-94.584;2022-10-15T04:48:52;19.20;44.40
62809;DHT22;48848;39.002;-94.584;2022-10-15T04:51:23;19.20;44.40
62809;DHT22;48848;39.002;-94.584;2022-10-15T04:53:49;19.10;43.90
62809;DHT22;48848;39.002;-94.584;2022-10-15T04:56:19;19.20;44.20
62809;DHT22;48848;39.002;-94.584;2022-10-15T04:58:47;19.10;44.50
62809;DHT22;48848;39.002;-94.584;2022-10-15T05:01:16;19.20;44.70
62809;DHT22;48848;39.002;-94.584;2022-10-15T05:03:44;19.10;44.50
62809;DHT22;48848;39.002;-94.584;2022-10-15T05:06:14;19.10;44.00
62809;DHT22;48848;39.002;-94.584;2022-10-15T05:08:40;19.10;44.30
62809;DHT22;48848;39.002;-94.584;2022-10-15T05:11:12;19.10;44.50
62809;DHT22;48848;39.002;-94.584;2022-10-15T05:13:39;19.10;44.70
62809;DHT22;48848;39.002;-94.584;2022-10-15T05:16:13;19.00;44.40
62809;DHT22;48848;39.002;-94.584;2022-10-15T05:18:41;19.00;45.00
62809;DHT22;48848;39.002;-94.584;2022-10-15T05:21:08;19.00;45.00
62809;DHT22;48848;39.002;-94.584;2022-10-15T05:23:35;19.00;44.80
62809;DHT22;48848;39.002;-94.584;2022-10-15T05:26:03;19.00;45.00
62809;DHT22;48848;39.002;-94.584;2022-10-15T05:28:30;19.00;45.10
62809;DHT22;48848;39.002;-94.584;2022-10-15T05:31:02;18.90;45.00
62809;DHT22;48848;39.002;-94.584;2022-10-15T05:33:28;18.90;44.80
62809;DHT22;48848;39.002;-94.584;2022-10-15T05:35:54;18.90;45.20
62809;DHT22;48848;39.002;-94.584;2022-10-15T05:38:20;18.90;45.20
62809;DHT22;48848;39.002;-94.584;2022-10-15T05:40:47;18.90;44.90
62809;DHT22;48848;39.002;-94.584;2022-10-15T05:43:14;18.90;45.00
62809;DHT22;48848;39.002;-94.584;2022-10-15T05:45:41;18.80;45.10
62809;DHT22;48848;39.002;-94.584;2022-10-15T05:48:07;18.90;44.90
62809;DHT22;48848;39.002;-94.584;2022-10-15T05:50:33;18.80;45.00
62809;DHT22;48848;39.002;-94.584;2022-10-15T05:52:59;18.80;45.00
62809;DHT22;48848;39.002;-94.584;2022-10-15T05:55:25;18.80;45.10
62809;DHT22;48848;39.002;-94.584;2022-10-15T05:57:51;18.80;45.20
62809;DHT22;48848;39.002;-94.584;2022-10-15T06:00:18;18.80;45.20
62809;DHT22;48848;39.002;-94.584;2022-10-15T06:02:44;18.70;45.20
62809;DHT22;48848;39.002;-94.584;2022-10-15T06:05:10;18.70;45.30
62809;DHT22;48848;39.002;-94.584;2022-10-15T06:07:36;18.70;45.30
62809;DHT22;48848;39.002;-94.584;2022-10-15T06:10:03;18.70;45.40
62809;DHT22;48848;39.002;-94.584;2022-10-15T06:12:30;18.70;45.20
62809;DHT22;48848;39.002;-94.584;2022-10-15T06:14:56;18.70;44.90
62809;DHT22;48848;39.002;-94.584;2022-10-15T06:17:22;18.70;45.00
62809;DHT22;48848;39.002;-94.584;2022-10-15T06:19:48;18.70;45.10
62809;DHT22;48848;39.002;-94.584;2022-10-15T06:22:15;18.70;44.80
62809;DHT22;48848;39.002;-94.584;2022-10-15T06:24:41;18.70;44.90
62809;DHT22;48848;39.002;-94.584;2022-10-15T06:27:07;18.60;45.00
62809;DHT22;48848;39.002;-94.584;2022-10-15T06:29:34;18.60;44.80
62809;DHT22;48848;39.002;-94.584;2022-10-15T06:32:01;18.60;44.90
62809;DHT22;48848;39.002;-94.584;2022-10-15T06:34:27;18.60;45.20
62809;DHT22;48848;39.002;-94.584;2022-10-15T06:36:53;18.60;44.90
62809;DHT22;48848;39.002;-94.584;2022-10-15T06:39:19;18.60;45.30
62809;DHT22;48848;39.002;-94.584;2022-10-15T06:41:45;18.60;44.80
62809;DHT22;48848;39.002;-94.584;2022-10-15T06:44:11;18.50;45.10
62809;DHT22;48848;39.002;-94.584;2022-10-15T06:46:37;18.50;44.90
62809;DHT22;48848;39.002;-94.584;2022-10-15T06:49:03;18.50;45.00
62809;DHT22;48848;39.002;-94.584;2022-10-15T06:51:30;18.50;44.90
62809;DHT22;48848;39.002;-94.584;2022-10-15T06:53:56;18.50;44.90
62809;DHT22;48848;39.002;-94.584;2022-10-15T06:56:22;18.50;44.80
62809;DHT22;48848;39.002;-94.584;2022-10-15T06:58:48;18.50;44.70
62809;DHT22;48848;39.002;-94.584;2022-10-15T07:01:14;18.40;44.70
62809;DHT22;48848;39.002;-94.584;2022-10-15T07:03:41;18.40;44.90
62809;DHT22;48848;39.002;-94.584;2022-10-15T07:06:08;18.40;45.30
62809;DHT22;48848;39.002;-94.584;2022-10-15T07:08:35;18.40;44.70
62809;DHT22;48848;39.002;-94.584;2022-10-15T07:11:03;18.40;44.90
62809;DHT22;48848;39.002;-94.584;2022-10-15T07:13:29;18.30;44.70
62809;DHT22;48848;39.002;-94.584;2022-10-15T07:15:55;18.40;44.70
62809;DHT22;48848;39.002;-94.584;2022-10-15T07:18:22;18.30;44.50
62809;DHT22;48848;39.002;-94.584;2022-10-15T07:20:48;18.30;44.60
62809;DHT22;48848;39.002;-94.584;2022-10-15T07:23:14;18.30;44.90
62809;DHT22;48848;39.002;-94.584;2022-10-15T07:25:40;18.20;45.00
62809;DHT22;48848;39.002;-94.584;2022-10-15T07:28:06;18.30;45.00
62809;DHT22;48848;39.002;-94.584;2022-10-15T07:30:32;18.20;44.50
62809;DHT22;48848;39.002;-94.584;2022-10-15T07:32:59;18.20;44.40
62809;DHT22;48848;39.002;-94.584;2022-10-15T07:35:26;18.20;44.80
62809;DHT22;48848;39.002;-94.584;2022-10-15T07:37:53;18.20;45.00
62809;DHT22;48848;39.002;-94.584;2022-10-15T07:40:20;18.20;44.60
62809;DHT22;48848;39.002;-94.584;2022-10-15T07:42:58;18.20;44.80
62809;DHT22;48848;39.002;-94.584;2022-10-15T07:45:25;18.10;44.60
62809;DHT22;48848;39.002;-94.584;2022-10-15T07:47:53;18.10;44.80
62809;DHT22;48848;39.002;-94.584;2022-10-15T07:50:20;18.10;45.90
62809;DHT22;48848;39.002;-94.584;2022-10-15T07:52:46;18.10;44.70
62809;DHT22;48848;39.002;-94.584;2022-10-15T07:55:12;18.00;43.90
62809;DHT22;48848;39.002;-94.584;2022-10-15T07:57:39;18.10;44.20
62809;DHT22;48848;39.002;-94.584;2022-10-15T08:00:06;18.00;44.70
62809;DHT22;48848;39.002;-94.584;2022-10-15T08:02:32;18.00;44.70
62809;DHT22;48848;39.002;-94.584;2022-10-15T08:04:58;18.00;44.60
62809;DHT22;48848;39.002;-94.584;2022-10-15T08:07:24;18.00;43.50
62809;DHT22;48848;39.002;-94.584;2022-10-15T08:09:51;18.00;43.70
62809;DHT22;48848;39.002;-94.584;2022-10-15T08:12:17;18.00;44.10
62809;DHT22;48848;39.002;-94.584;2022-10-15T08:14:43;17.90;44.40
62809;DHT22;48848;39.002;-94.584;2022-10-15T08:17:09;17.90;44.30
62809;DHT22;48848;39.002;-94.584;2022-10-15T08:19:35;17.90;43.80
62809;DHT22;48848;39.002;-94.584;2022-10-15T08:22:02;17.90;44.20
62809;DHT22;48848;39.002;-94.584;2022-10-15T08:24:28;17.90;43.80
62809;DHT22;48848;39.002;-94.584;2022-10-15T08:26:56;17.90;44.40
62809;DHT22;48848;39.002;-94.584;2022-10-15T08:29:23;17.80;44.50
62809;DHT22;48848;39.002;-94.584;2022-10-15T08:31:49;17.80;44.50
62809;DHT22;48848;39.002;-94.584;2022-10-15T08:34:16;17.80;44.50
62809;DHT22;48848;39.002;-94.584;2022-10-15T08:36:42;17.80;44.50
62809;DHT22;48848;39.002;-94.584;2022-10-15T08:39:08;17.70;44.70
62809;DHT22;48848;39.002;-94.584;2022-10-15T08:42:13;17.70;43.60
62809;DHT22;48848;39.002;-94.584;2022-10-15T08:44:46;17.70;44.30
62809;DHT22;48848;39.002;-94.584;2022-10-15T08:47:30;17.70;44.30
62809;DHT22;48848;39.002;-94.584;2022-10-15T08:50:02;17.70;43.80
62809;DHT22;48848;39.002;-94.584;2022-10-15T08:52:44;17.70;43.90
62809;DHT22;48848;39.002;-94.584;2022-10-15T08:55:12;17.70;44.00
62809;DHT22;48848;39.002;-94.584;2022-10-15T09:00:29;17.60;44.00
62809;DHT22;48848;39.002;-94.584;2022-10-15T09:02:59;17.50;45.00
62809;DHT22;48848;39.002;-94.584;2022-10-15T09:10:47;17.50;44.70
62809;DHT22;48848;39.002;-94.584;2022-10-15T09:13:26;17.50;44.20
62809;DHT22;48848;39.002;-94.584;2022-10-15T09:16:00;17.50;44.30
62809;DHT22;48848;39.002;-94.584;2022-10-15T09:18:31;17.40;44.20
62809;DHT22;48848;39.002;-94.584;2022-10-15T09:20:59;17.40;45.00
62809;DHT22;48848;39.002;-94.584;2022-10-15T09:23:28;17.40;43.80
62809;DHT22;48848;39.002;-94.584;2022-10-15T09:26:03;17.40;43.90
62809;DHT22;48848;39.002;-94.584;2022-10-15T09:28:41;17.40;44.50
62809;DHT22;48848;39.002;-94.584;2022-10-15T09:31:09;17.40;44.00
62809;DHT22;48848;39.002;-94.584;2022-10-15T09:36:39;17.30;43.60
62809;DHT22;48848;39.002;-94.584;2022-10-15T09:39:21;17.30;44.70
62809;DHT22;48848;39.002;-94.584;2022-10-15T09:42:02;17.30;44.40
62809;DHT22;48848;39.002;-94.584;2022-10-15T09:44:41;17.30;44.30
62809;DHT22;48848;39.002;-94.584;2022-10-15T09:47:31;17.20;44.30
62809;DHT22;48848;39.002;-94.584;2022-10-15T09:49:58;17.20;43.80
62809;DHT22;48848;39.002;-94.584;2022-10-15T09:58:07;17.20;44.50
62809;DHT22;48848;39.002;-94.584;2022-10-15T10:00:59;17.10;44.40
62809;DHT22;48848;39.002;-94.584;2022-10-15T10:03:28;17.10;43.90
62809;DHT22;48848;39.002;-94.584;2022-10-15T10:06:13;17.10;44.60
62809;DHT22;48848;39.002;-94.584;2022-10-15T10:11:18;17.10;44.10
62809;DHT22;48848;39.002;-94.584;2022-10-15T10:13:54;17.00;44.70
62809;DHT22;48848;39.002;-94.584;2022-10-15T10:16:22;17.00;43.90
62809;DHT22;48848;39.002;-94.584;2022-10-15T10:19:13;17.00;44.30
62809;DHT22;48848;39.002;-94.584;2022-10-15T10:21:41;17.00;44.20
62809;DHT22;48848;39.002;-94.584;2022-10-15T10:26:53;16.90;43.90
62809;DHT22;48848;39.002;-94.584;2022-10-15T10:29:21;16.90;44.00
62809;DHT22;48848;39.002;-94.584;2022-10-15T10:31:48;16.90;44.80
62809;DHT22;48848;39.002;-94.584;2022-10-15T10:34:22;16.90;44.70
62809;DHT22;48848;39.002;-94.584;2022-10-15T10:36:52;16.90;44.30
62809;DHT22;48848;39.002;-94.584;2022-10-15T10:39:25;16.90;44.10
62809;DHT22;48848;39.002;-94.584;2022-10-15T10:42:00;16.80;44.10
62809;DHT22;48848;39.002;-94.584;2022-10-15T10:44:46;16.80;44.60
62809;DHT22;48848;39.002;-94.584;2022-10-15T10:47:21;16.80;44.30
62809;DHT22;48848;39.002;-94.584;2022-10-15T10:49:53;16.80;44.80
62809;DHT22;48848;39.002;-94.584;2022-10-15T10:52:33;16.70;44.40
62809;DHT22;48848;39.002;-94.584;2022-10-15T10:55:01;16.70;44.60
62809;DHT22;48848;39.002;-94.584;2022-10-15T10:57:49;16.70;44.40
62809;DHT22;48848;39.002;-94.584;2022-10-15T11:00:20;16.70;44.50
62809;DHT22;48848;39.002;-94.584;2022-10-15T11:02:48;16.70;44.60
62809;DHT22;48848;39.002;-94.584;2022-10-15T11:05:25;16.60;44.80
62809;DHT22;48848;39.002;-94.584;2022-10-15T11:08:18;16.60;44.30
62809;DHT22;48848;39.002;-94.584;2022-10-15T11:11:03;16.60;44.70
62809;DHT22;48848;39.002;-94.584;2022-10-15T11:19:57;16.50;44.30
62809;DHT22;48848;39.002;-94.584;2022-10-15T11:28:28;16.40;45.00
62809;DHT22;48848;39.002;-94.584;2022-10-15T11:39:58;16.40;44.90
62809;DHT22;48848;39.002;-94.584;2022-10-15T11:42:11;16.40;44.70
62809;DHT22;48848;39.002;-94.584;2022-10-15T11:51:23;16.30;45.20
62809;DHT22;48848;39.002;-94.584;2022-10-15T11:56:35;16.20;45.20
62809;DHT22;48848;39.002;-94.584;2022-10-15T11:59:05;16.20;45.30
62809;DHT22;48848;39.002;-94.584;2022-10-15T12:01:44;16.20;45.70
62809;DHT22;48848;39.002;-94.584;2022-10-15T12:04:28;16.20;45.10
62809;DHT22;48848;39.002;-94.584;2022-10-15T12:06:57;16.10;45.30
62809;DHT22;48848;39.002;-94.584;2022-10-15T12:09:35;16.10;45.20
62809;DHT22;48848;39.002;-94.584;2022-10-15T12:12:18;16.10;45.60
62809;DHT22;48848;39.002;-94.584;2022-10-15T12:14:52;16.10;45.60
62809;DHT22;48848;39.002;-94.584;2022-10-15T12:20:12;16.00;45.40
62809;DHT22;48848;39.002;-94.584;2022-10-15T12:28:03;16.00;45.70
62809;DHT22;48848;39.002;-94.584;2022-10-15T12:30:31;16.00;45.70
62809;DHT22;48848;39.002;-94.584;2022-10-15T12:33:00;16.00;45.60
62809;DHT22;48848;39.002;-94.584;2022-10-15T12:38:21;15.90;45.70
62809;DHT22;48848;39.002;-94.584;2022-10-15T12:40:56;15.90;45.50
62809;DHT22;48848;39.002;-94.584;2022-10-15T12:43:23;15.90;45.50
62809;DHT22;48848;39.002;-94.584;2022-10-15T12:45:53;15.80;45.50
62809;DHT22;48848;39.002;-94.584;2022-10-15T12:48:28;15.80;45.70
62809;DHT22;48848;39.002;-94.584;2022-10-15T12:53:47;15.80;45.70
62809;DHT22;48848;39.002;-94.584;2022-10-15T12:58:46;15.80;45.80
62809;DHT22;48848;39.002;-94.584;2022-10-15T13:11:46;15.70;45.80
62809;DHT22;48848;39.002;-94.584;2022-10-15T13:14:41;15.70;45.50
62809;DHT22;48848;39.002;-94.584;2022-10-15T13:17:19;15.70;45.80
62809;DHT22;48848;39.002;-94.584;2022-10-15T13:19:55;15.70;45.70
62809;DHT22;48848;39.002;-94.584;2022-10-15T13:22:26;15.70;45.80
62809;DHT22;48848;39.002;-94.584;2022-10-15T13:24:53;15.60;45.60
62809;DHT22;48848;39.002;-94.584;2022-10-15T13:27:34;15.60;45.60
62809;DHT22;48848;39.002;-94.584;2022-10-15T13:30:15;15.60;45.80
62809;DHT22;48848;39.002;-94.584;2022-10-15T13:32:50;15.60;45.80
62809;DHT22;48848;39.002;-94.584;2022-10-15T13:35:37;15.60;45.80
62809;DHT22;48848;39.002;-94.584;2022-10-15T13:38:04;15.60;45.90
62809;DHT22;48848;39.002;-94.584;2022-10-15T13:40:30;15.60;46.00
62809;DHT22;48848;39.002;-94.584;2022-10-15T13:43:02;15.60;45.90
62809;DHT22;48848;39.002;-94.584;2022-10-15T13:45:29;15.60;46.10
62809;DHT22;48848;39.002;-94.584;2022-10-15T13:47:56;15.50;45.90
62809;DHT22;48848;39.002;-94.584;2022-10-15T13:50:28;15.50;46.10
62809;DHT22;48848;39.002;-94.584;2022-10-15T13:52:59;15.50;46.10
62809;DHT22;48848;39.002;-94.584;2022-10-15T13:55:31;15.50;46.10
62809;DHT22;48848;39.002;-94.584;2022-10-15T13:58:13;15.50;46.50
62809;DHT22;48848;39.002;-94.584;2022-10-15T14:00:42;15.50;46.30
62809;DHT22;48848;39.002;-94.584;2022-10-15T14:05:44;15.50;46.60
62809;DHT22;48848;39.002;-94.584;2022-10-15T14:08:25;15.50;46.90
62809;DHT22;48848;39.002;-94.584;2022-10-15T14:10:54;15.50;47.20
62809;DHT22;48848;39.002;-94.584;2022-10-15T14:13:22;15.40;46.50
62809;DHT22;48848;39.002;-94.584;2022-10-15T14:18:39;15.40;47.00
62809;DHT22;48848;39.002;-94.584;2022-10-15T14:21:14;15.40;47.70
62809;DHT22;48848;39.002;-94.584;2022-10-15T14:23:42;15.40;47.10
62809;DHT22;48848;39.002;-94.584;2022-10-15T14:26:10;15.50;47.60
62809;DHT22;48848;39.002;-94.584;2022-10-15T14:28:37;15.40;47.50
62809;DHT22;48848;39.002;-94.584;2022-10-15T14:31:05;15.40;48.20
62809;DHT22;48848;39.002;-94.584;2022-10-15T14:36:10;15.40;47.90
62809;DHT22;48848;39.002;-94.584;2022-10-15T14:38:37;15.40;48.10
62809;DHT22;48848;39.002;-94.584;2022-10-15T14:46:39;15.40;48.10
62809;DHT22;48848;39.002;-94.584;2022-10-15T14:49:32;15.40;48.10
62809;DHT22;48848;39.002;-94.584;2022-10-15T14:52:19;15.40;48.20
62809;DHT22;48848;39.002;-94.584;2022-10-15T14:55:12;15.40;48.00
62809;DHT22;48848;39.002;-94.584;2022-10-15T14:57:41;15.40;47.90
62809;DHT22;48848;39.002;-94.584;2022-10-15T15:00:34;15.40;48.00
62809;DHT22;48848;39.002;-94.584;2022-10-15T15:03:05;15.50;48.10
62809;DHT22;48848;39.002;-94.584;2022-10-15T15:05:46;15.40;48.40
62809;DHT22;48848;39.002;-94.584;2022-10-15T15:08:13;15.40;48.80
62809;DHT22;48848;39.002;-94.584;2022-10-15T15:10:40;15.40;48.10
62809;DHT22;48848;39.002;-94.584;2022-10-15T15:13:09;15.50;48.20
62809;DHT22;48848;39.002;-94.584;2022-10-15T15:15:35;15.50;48.30
62809;DHT22;48848;39.002;-94.584;2022-10-15T15:18:04;15.50;48.10
62809;DHT22;48848;39.002;-94.584;2022-10-15T15:20:30;15.40;48.00
62809;DHT22;48848;39.002;-94.584;2022-10-15T15:22:57;15.50;47.90
62809;DHT22;48848;39.002;-94.584;2022-10-15T15:25:27;15.50;48.10
62809;DHT22;48848;39.002;-94.584;2022-10-15T15:27:55;15.50;48.00
62809;DHT22;48848;39.002;-94.584;2022-10-15T15:30:23;15.50;48.30
62809;DHT22;48848;39.002;-94.584;2022-10-15T15:32:50;15.50;48.00
62809;DHT22;48848;39.002;-94.584;2022-10-15T15:35:38;15.50;47.90
62809;DHT22;48848;39.002;-94.584;2022-10-15T15:38:07;15.50;48.20
62809;DHT22;48848;39.002;-94.584;2022-10-15T15:40:34;15.50;48.10
62809;DHT22;48848;39.002;-94.584;2022-10-15T15:43:01;15.60;48.10
62809;DHT22;48848;39.002;-94.584;2022-10-15T15:45:27;15.60;48.30
62809;DHT22;48848;39.002;-94.584;2022-10-15T15:47:54;15.60;47.50
62809;DHT22;48848;39.002;-94.584;2022-10-15T15:50:28;15.60;47.70
62809;DHT22;48848;39.002;-94.584;2022-10-15T15:52:54;15.70;47.60
62809;DHT22;48848;39.002;-94.584;2022-10-15T15:55:21;15.70;47.40
62809;DHT22;48848;39.002;-94.584;2022-10-15T15:57:47;15.70;47.90
62809;DHT22;48848;39.002;-94.584;2022-10-15T16:00:13;15.70;47.80
62809;DHT22;48848;39.002;-94.584;2022-10-15T16:02:40;15.80;47.80
62809;DHT22;48848;39.002;-94.584;2022-10-15T16:05:10;15.80;48.00
62809;DHT22;48848;39.002;-94.584;2022-10-15T16:07:37;15.80;47.80
62809;DHT22;48848;39.002;-94.584;2022-10-15T16:10:04;15.90;47.90
62809;DHT22;48848;39.002;-94.584;2022-10-15T16:12:33;15.90;48.00
62809;DHT22;48848;39.002;-94.584;2022-10-15T16:15:00;15.90;48.00
62809;DHT22;48848;39.002;-94.584;2022-10-15T16:17:26;16.00;47.40
62809;DHT22;48848;39.002;-94.584;2022-10-15T16:19:52;16.00;47.70
62809;DHT22;48848;39.002;-94.584;2022-10-15T16:22:18;16.00;47.90
62809;DHT22;48848;39.002;-94.584;2022-10-15T16:24:45;16.00;48.00
62809;DHT22;48848;39.002;-94.584;2022-10-15T16:27:11;16.10;47.50
62809;DHT22;48848;39.002;-94.584;2022-10-15T16:29:37;16.10;47.50
62809;DHT22;48848;39.002;-94.584;2022-10-15T16:32:03;16.10;47.60
62809;DHT22;48848;39.002;-94.584;2022-10-15T16:34:29;16.10;47.10
62809;DHT22;48848;39.002;-94.584;2022-10-15T16:36:56;16.10;47.30
62809;DHT22;48848;39.002;-94.584;2022-10-15T16:39:22;16.20;47.30
62809;DHT22;48848;39.002;-94.584;2022-10-15T16:41:48;16.20;47.20
62809;DHT22;48848;39.002;-94.584;2022-10-15T16:44:15;16.20;47.50
62809;DHT22;48848;39.002;-94.584;2022-10-15T16:46:41;16.30;47.60
62809;DHT22;48848;39.002;-94.584;2022-10-15T16:49:08;16.30;47.60
62809;DHT22;48848;39.002;-94.584;2022-10-15T16:51:34;16.30;47.60
62809;DHT22;48848;39.002;-94.584;2022-10-15T16:54:00;16.40;47.50
62809;DHT22;48848;39.002;-94.584;2022-10-15T16:56:28;16.40;47.20
62809;DHT22;48848;39.002;-94.584;2022-10-15T16:58:55;16.40;46.30
62809;DHT22;48848;39.002;-94.584;2022-10-15T17:01:24;16.50;46.90
62809;DHT22;48848;39.002;-94.584;2022-10-15T17:03:51;16.50;46.80
62809;DHT22;48848;39.002;-94.584;2022-10-15T17:06:20;16.50;46.80
62809;DHT22;48848;39.002;-94.584;2022-10-15T17:08:52;16.50;46.60
62809;DHT22;48848;39.002;-94.584;2022-10-15T17:11:21;16.50;46.50
62809;DHT22;48848;39.002;-94.584;2022-10-15T17:13:50;16.60;46.40
62809;DHT22;48848;39.002;-94.584;2022-10-15T17:16:21;16.60;46.70
62809;DHT22;48848;39.002;-94.584;2022-10-15T17:18:48;16.60;46.50
62809;DHT22;48848;39.002;-94.584;2022-10-15T17:21:20;16.60;46.30
62809;DHT22;48848;39.002;-94.584;2022-10-15T17:23:49;16.70;45.90
62809;DHT22;48848;39.002;-94.584;2022-10-15T17:26:19;16.70;45.80